Time;durP1;ratioP1;P1;durP2;ratioP2;P2;SDS_P1;SDS_P2;PMS_P1;PMS_P2;Temp;Humidity;BMP_temperature;BMP_pressure;BME280_temperature;BME280_humidity;BME280_pressure;Samples;Min_cycle;Max_cycle;Signal;HPM_P1;HPM_P2
2023/06/13 00:00:59;;;;;;;10.07;5.47;;;15.00;77.30;;;;;;5083311;28;20055;-67
2023/06/13 00:03:29;;;;;;;8.75;4.90;;;15.00;77.20;;;;;;5096835;28;20019;-67
2023/06/13 00:05:55;;;;;;;9.00;5.07;;;15.00;77.30;;;;;;5083073;28;20039;-68
2023/06/13 00:08:24;;;;;;;9.77;5.50;;;14.90;77.40;;;;;;5094693;28;20036;-67
2023/06/13 00:10:50;;;;;;;10.60;5.28;;;14.90;77.60;;;;;;5091537;28;20039;-67
2023/06/13 00:13:20;;;;;;;8.65;5.63;;;14.90;77.60;;;;;;5086840;28;20021;-68
2023/06/13 00:15:51;;;;;;;7.88;5.30;;;14.90;77.60;;;;;;5082526;28;20016;-67
2023/06/13 00:18:20;;;;;;;9.80;5.07;;;14.90;77.70;;;;;;5077496;28;20020;-67
2023/06/13 00:20:50;;;;;;;9.13;5.43;;;14.90;77.70;;;;;;5083938;28;20020;-67
2023/06/13 00:23:16;;;;;;;8.82;5.38;;;14.90;78.10;;;;;;5087108;28;20035;-68
2023/06/13 00:25:42;;;;;;;8.70;5.57;;;14.80;78.10;;;;;;5094679;28;20030;-66
2023/06/13 00:28:07;;;;;;;10.35;5.10;;;14.80;78.20;;;;;;5074771;28;20141;-67
2023/06/13 00:30:33;;;;;;;10.75;5.20;;;14.80;78.10;;;;;;5085256;28;20071;-67
2023/06/13 00:32:59;;;;;;;7.78;5.03;;;14.70;78.50;;;;;;5096854;28;20052;-67
2023/06/13 00:35:25;;;;;;;9.05;5.03;;;14.60;78.90;;;;;;5089692;28;20024;-67
2023/06/13 00:37:54;;;;;;;8.90;5.35;;;14.60;78.90;;;;;;5092515;28;20310;-67
2023/06/13 00:40:20;;;;;;;7.68;5.05;;;14.60;79.00;;;;;;5095827;28;20028;-68
2023/06/13 00:42:46;;;;;;;8.15;5.15;;;14.50;79.10;;;;;;5096004;28;20370;-67
2023/06/13 00:45:21;;;;;;;8.00;4.88;;;14.50;79.30;;;;;;5070725;28;20123;-67
2023/06/13 00:47:51;;;;;;;9.40;5.45;;;14.50;79.20;;;;;;5090427;28;20049;-68
2023/06/13 00:50:19;;;;;;;7.35;4.82;;;14.40;79.60;;;;;;5095040;28;20027;-65
2023/06/13 00:52:46;;;;;;;7.95;5.10;;;14.40;79.70;;;;;;5097550;28;20105;-66
2023/06/13 00:55:14;;;;;;;8.98;5.78;;;14.30;80.00;;;;;;5078641;28;20024;-67
2023/06/13 00:57:40;;;;;;;11.50;5.20;;;14.20;80.20;;;;;;5095181;28;20024;-68
2023/06/13 01:00:07;;;;;;;9.15;5.57;;;14.20;80.30;;;;;;5095652;28;20032;-68
2023/06/13 01:02:35;;;;;;;8.35;5.32;;;14.20;80.40;;;;;;5087112;28;20025;-67
2023/06/13 01:05:02;;;;;;;10.07;5.22;;;14.30;80.50;;;;;;5076885;28;20017;-68
2023/06/13 01:07:29;;;;;;;8.60;5.40;;;14.30;80.50;;;;;;5075409;28;20016;-68
2023/06/13 01:09:56;;;;;;;9.02;5.25;;;14.20;80.70;;;;;;5076441;28;20017;-68
2023/06/13 01:12:47;;;;;;;7.78;4.78;;;14.20;80.50;;;;;;5076556;28;20413;-67
2023/06/13 01:15:16;;;;;;;8.20;4.90;;;14.20;80.60;;;;;;5078140;28;20058;-67
2023/06/13 01:17:57;;;;;;;9.50;5.07;;;14.20;80.80;;;;;;5080406;28;20052;-68
2023/06/13 01:20:26;;;;;;;8.15;5.20;;;14.20;80.90;;;;;;5078779;28;20028;-67
2023/06/13 01:23:03;;;;;;;7.40;4.90;;;14.10;81.10;;;;;;5086072;28;20020;-67
2023/06/13 01:25:52;;;;;;;8.68;5.20;;;14.10;81.10;;;;;;5083691;28;20032;-67
2023/06/13 01:28:20;;;;;;;9.95;4.50;;;14.00;81.50;;;;;;5064361;28;20130;-68
2023/06/13 01:30:48;;;;;;;11.10;5.57;;;14.00;81.30;;;;;;5087794;28;20024;-67
2023/06/13 01:33:16;;;;;;;10.45;5.35;;;14.00;81.30;;;;;;5089210;28;20024;-68
2023/06/13 01:35:42;;;;;;;9.98;5.00;;;14.00;81.30;;;;;;5089155;28;20107;-67
2023/06/13 01:38:08;;;;;;;8.73;5.05;;;14.00;81.40;;;;;;5085091;28;20090;-68
2023/06/13 01:40:34;;;;;;;10.38;4.55;;;13.90;81.60;;;;;;5090198;28;20417;-68
2023/06/13 01:42:59;;;;;;;9.10;4.85;;;13.90;81.90;;;;;;5091465;28;20069;-67
2023/06/13 01:45:26;;;;;;;10.00;4.90;;;13.80;82.10;;;;;;5094382;28;20055;-68
2023/06/13 01:48:18;;;;;;;7.38;4.78;;;13.80;82.30;;;;;;5092749;28;20328;-66
2023/06/13 01:51:07;;;;;;;11.00;5.32;;;13.80;82.40;;;;;;5088047;28;20138;-66
2023/06/13 01:53:49;;;;;;;8.68;5.28;;;13.70;82.60;;;;;;5064981;28;20024;-67
2023/06/13 01:56:19;;;;;;;9.52;5.35;;;13.60;83.10;;;;;;5094635;28;20024;-68
2023/06/13 01:59:06;;;;;;;7.38;5.13;;;13.60;83.20;;;;;;5092386;28;20027;-67
2023/06/13 02:01:38;;;;;;;9.40;5.32;;;13.50;83.50;;;;;;5089644;28;20028;-68
2023/06/13 02:04:04;;;;;;;9.88;4.85;;;13.50;83.60;;;;;;5092140;28;20023;-67
2023/06/13 02:06:30;;;;;;;11.15;5.70;;;13.50;83.70;;;;;;5091846;28;20020;-68
2023/06/13 02:08:56;;;;;;;10.32;4.95;;;13.50;83.70;;;;;;5090787;28;20027;-67
2023/06/13 02:11:22;;;;;;;8.77;5.28;;;13.40;84.00;;;;;;5083748;28;20464;-67
2023/06/13 02:13:49;;;;;;;9.48;5.25;;;13.40;84.20;;;;;;5088051;28;20051;-67
2023/06/13 02:16:17;;;;;;;8.50;5.25;;;13.40;84.40;;;;;;5092914;28;20035;-67
2023/06/13 02:18:43;;;;;;;8.85;4.85;;;13.30;84.60;;;;;;5093521;28;20348;-67
2023/06/13 02:21:09;;;;;;;7.97;5.55;;;13.20;84.80;;;;;;5087290;28;20074;-67
2023/06/13 02:23:34;;;;;;;10.10;5.55;;;13.10;85.10;;;;;;5086702;28;20031;-67
2023/06/13 02:26:00;;;;;;;9.00;5.20;;;13.00;85.80;;;;;;5092980;28;20046;-66
2023/06/13 02:28:25;;;;;;;9.10;4.72;;;12.90;85.90;;;;;;5087635;28;20074;-66
2023/06/13 02:30:52;;;;;;;7.50;4.53;;;12.80;86.20;;;;;;5090291;28;20025;-66
2023/06/13 02:33:24;;;;;;;8.35;5.10;;;12.60;86.80;;;;;;5086263;28;20024;-66
2023/06/13 02:35:50;;;;;;;7.70;4.95;;;12.50;87.20;;;;;;5085391;28;20321;-67
2023/06/13 02:38:16;;;;;;;8.15;5.03;;;12.40;87.60;;;;;;5082357;28;20032;-67
2023/06/13 02:40:41;;;;;;;9.98;4.95;;;12.30;87.90;;;;;;5087075;28;20103;-68
2023/06/13 02:43:07;;;;;;;10.45;5.38;;;12.20;88.20;;;;;;5088078;28;20028;-68
2023/06/13 02:45:35;;;;;;;7.70;5.25;;;12.10;89.00;;;;;;5078361;28;20028;-67
2023/06/13 02:48:01;;;;;;;10.65;5.68;;;12.00;89.00;;;;;;5091137;28;20090;-67
2023/06/13 02:50:27;;;;;;;9.60;5.65;;;11.80;89.60;;;;;;5086103;28;20449;-67
2023/06/13 02:52:52;;;;;;;8.07;4.90;;;11.70;90.20;;;;;;5062727;28;20028;-68
2023/06/13 02:55:18;;;;;;;8.40;4.95;;;11.60;90.70;;;;;;5079901;28;20063;-68
2023/06/13 02:57:45;;;;;;;8.43;5.38;;;11.50;91.10;;;;;;5089391;28;20132;-68
2023/06/13 03:00:12;;;;;;;11.18;5.15;;;11.40;91.50;;;;;;5087633;28;20063;-67
2023/06/13 03:02:38;;;;;;;8.65;5.38;;;11.30;91.80;;;;;;5090563;28;20036;-67
2023/06/13 03:05:07;;;;;;;10.93;6.28;;;11.20;92.20;;;;;;5087683;28;20016;-67
2023/06/13 03:07:32;;;;;;;8.85;5.47;;;11.10;92.50;;;;;;5085560;28;20020;-67
2023/06/13 03:10:00;;;;;;;8.57;5.28;;;11.10;92.80;;;;;;5084009;28;21698;-67
2023/06/13 03:12:26;;;;;;;9.65;5.78;;;11.10;92.90;;;;;;5092393;28;20029;-67
2023/06/13 03:14:52;;;;;;;12.38;5.50;;;11.00;93.20;;;;;;5075595;28;20436;-67
2023/06/13 03:17:17;;;;;;;10.73;5.40;;;10.90;93.30;;;;;;5079672;28;20032;-67
2023/06/13 03:19:43;;;;;;;9.52;5.68;;;10.90;93.40;;;;;;5077498;28;20032;-67
2023/06/13 03:22:13;;;;;;;8.98;5.90;;;10.80;93.80;;;;;;5082255;28;20040;-67
2023/06/13 03:24:42;;;;;;;8.73;5.57;;;10.70;94.00;;;;;;5091842;28;20024;-67
2023/06/13 03:27:08;;;;;;;12.82;5.80;;;10.70;94.20;;;;;;5091268;28;20017;-67
2023/06/13 03:29:33;;;;;;;8.07;5.28;;;10.60;94.40;;;;;;5081532;28;20035;-68
2023/06/13 03:31:59;;;;;;;9.35;5.63;;;10.40;94.70;;;;;;5092668;28;20035;-67
2023/06/13 03:34:26;;;;;;;8.75;5.13;;;10.30;94.90;;;;;;5092636;28;20024;-68
2023/06/13 03:36:51;;;;;;;8.70;5.47;;;10.30;95.40;;;;;;5094500;28;20044;-68
2023/06/13 03:39:17;;;;;;;8.85;5.55;;;10.30;95.50;;;;;;5089745;28;20409;-67
2023/06/13 03:41:43;;;;;;;10.82;5.75;;;10.30;95.50;;;;;;5094783;28;20020;-67
2023/06/13 03:44:08;;;;;;;9.85;5.57;;;10.30;95.50;;;;;;5095259;28;20088;-68
2023/06/13 03:46:34;;;;;;;8.88;5.63;;;10.20;95.50;;;;;;5095117;28;20079;-67
2023/06/13 03:48:59;;;;;;;11.48;6.25;;;10.20;95.60;;;;;;5078155;28;20058;-67
2023/06/13 03:51:25;;;;;;;8.25;5.63;;;10.10;95.80;;;;;;5092251;28;20050;-67
2023/06/13 03:53:50;;;;;;;8.68;5.53;;;10.10;95.80;;;;;;5081355;28;20085;-68
2023/06/13 03:56:17;;;;;;;8.63;5.40;;;10.10;95.90;;;;;;5097747;28;20028;-67
2023/06/13 03:58:42;;;;;;;9.65;5.43;;;10.10;95.90;;;;;;5096678;28;20171;-67
2023/06/13 04:01:10;;;;;;;10.30;5.60;;;10.10;95.90;;;;;;5071689;28;20142;-67
2023/06/13 04:03:39;;;;;;;10.30;5.55;;;10.10;95.90;;;;;;5090912;28;20031;-68
2023/06/13 04:06:05;;;;;;;9.90;5.45;;;10.10;96.00;;;;;;5093715;28;20024;-67
2023/06/13 04:08:31;;;;;;;8.93;5.65;;;10.10;95.90;;;;;;5083374;28;20027;-67
2023/06/13 04:10:57;;;;;;;7.63;5.22;;;10.20;95.90;;;;;;5085200;28;20020;-67
2023/06/13 04:13:22;;;;;;;12.23;5.63;;;10.20;95.80;;;;;;5095134;28;20107;-67
2023/06/13 04:15:48;;;;;;;11.25;5.43;;;10.40;95.30;;;;;;5094535;28;20388;-67
2023/06/13 04:18:17;;;;;;;10.85;5.10;;;10.60;94.40;;;;;;5091423;28;20036;-68
2023/06/13 04:20:42;;;;;;;9.88;5.63;;;10.90;93.60;;;;;;5080222;28;20021;-67
2023/06/13 04:23:08;;;;;;;9.05;4.97;;;11.00;93.40;;;;;;5090911;28;20032;-67
2023/06/13 04:25:36;;;;;;;9.93;5.43;;;11.20;92.20;;;;;;5067593;28;20024;-68
2023/06/13 04:28:02;;;;;;;10.57;4.53;;;11.20;92.00;;;;;;5092206;28;20193;-67
2023/06/13 04:30:28;;;;;;;8.20;5.00;;;11.40;91.70;;;;;;5091634;28;20024;-68
2023/06/13 04:32:57;;;;;;;8.32;5.13;;;11.50;91.00;;;;;;5089364;28;20036;-66
2023/06/13 04:35:28;;;;;;;11.35;5.22;;;11.50;91.10;;;;;;5091670;28;20031;-67
2023/06/13 04:37:56;;;;;;;11.10;5.07;;;11.50;90.90;;;;;;5089644;28;20040;-67
2023/06/13 04:40:31;;;;;;;9.23;5.13;;;11.60;90.60;;;;;;5097676;28;20028;-68
2023/06/13 04:42:58;;;;;;;8.80;5.15;;;11.60;90.60;;;;;;5094904;28;20020;-67
2023/06/13 04:45:24;;;;;;;8.13;4.72;;;11.50;90.40;;;;;;5085217;28;20118;-68
2023/06/13 04:47:57;;;;;;;9.38;4.78;;;11.60;90.20;;;;;;5087261;28;20077;-67
2023/06/13 04:50:24;;;;;;;8.82;5.03;;;11.80;89.10;;;;;;5082437;28;20037;-68
2023/06/13 04:52:53;;;;;;;8.63;4.78;;;11.90;88.70;;;;;;5093538;28;20027;-68
2023/06/13 04:55:21;;;;;;;7.72;4.38;;;12.00;87.90;;;;;;5090097;28;20172;-67
2023/06/13 04:57:49;;;;;;;12.10;4.93;;;12.00;87.90;;;;;;5081489;28;20027;-67
2023/06/13 05:00:15;;;;;;;9.80;4.70;;;12.10;87.10;;;;;;5095770;28;20028;-68
2023/06/13 05:02:41;;;;;;;8.52;4.55;;;12.20;87.00;;;;;;5093150;28;20027;-68
2023/06/13 05:05:07;;;;;;;10.73;5.57;;;12.20;86.90;;;;;;5089235;28;20032;-68
2023/06/13 05:07:39;;;;;;;10.15;4.75;;;12.20;86.30;;;;;;5092056;28;20103;-68
2023/06/13 05:10:05;;;;;;;11.77;4.28;;;12.30;85.70;;;;;;5084336;28;20380;-67
2023/06/13 05:12:30;;;;;;;9.13;4.53;;;12.40;85.10;;;;;;5078771;28;20023;-68
2023/06/13 05:14:56;;;;;;;8.05;4.20;;;12.40;84.80;;;;;;5082092;28;20111;-68
2023/06/13 05:17:22;;;;;;;9.27;4.68;;;12.40;85.40;;;;;;5079476;28;20052;-66
2023/06/13 05:19:52;;;;;;;11.18;4.70;;;12.50;84.10;;;;;;5091485;28;20024;-66
2023/06/13 05:22:18;;;;;;;9.95;4.45;;;12.70;83.40;;;;;;5085707;28;20064;-67
2023/06/13 05:24:44;;;;;;;8.15;4.35;;;12.80;82.90;;;;;;5087815;28;20020;-67
2023/06/13 05:27:09;;;;;;;6.70;3.97;;;12.90;81.90;;;;;;5087037;28;20101;-66
2023/06/13 05:29:35;;;;;;;8.55;4.30;;;12.90;82.00;;;;;;5087298;28;20039;-68
2023/06/13 05:32:04;;;;;;;9.52;4.10;;;13.10;81.50;;;;;;5090905;28;20090;-69
2023/06/13 05:34:33;;;;;;;12.80;5.25;;;13.20;80.70;;;;;;5085021;28;20028;-68
2023/06/13 05:36:58;;;;;;;9.00;4.03;;;13.40;80.20;;;;;;5096166;28;20047;-68
2023/06/13 05:39:24;;;;;;;12.07;4.05;;;13.50;79.70;;;;;;5088820;28;20443;-68
2023/06/13 05:41:49;;;;;;;8.25;4.15;;;13.60;79.50;;;;;;5083392;28;20036;-68
2023/06/13 05:44:15;;;;;;;6.97;4.03;;;13.70;79.00;;;;;;5092036;28;20099;-69
2023/06/13 05:46:41;;;;;;;7.72;3.88;;;13.80;78.30;;;;;;5077714;28;20024;-68
2023/06/13 05:49:07;;;;;;;7.30;4.40;;;13.90;78.40;;;;;;5079589;28;20024;-68
2023/06/13 05:51:33;;;;;;;8.88;4.45;;;14.00;77.50;;;;;;5077489;28;20028;-68
2023/06/13 05:53:58;;;;;;;8.73;3.70;;;14.10;76.50;;;;;;5086301;28;20073;-68
2023/06/13 05:56:25;;;;;;;12.90;4.80;;;14.20;76.40;;;;;;5096450;28;20028;-71
2023/06/13 05:58:53;;;;;;;8.02;4.32;;;14.30;80.20;;;;;;5094764;28;20028;-69
2023/06/13 06:01:20;;;;;;;8.55;4.22;;;13.90;83.60;;;;;;5078567;28;20023;-69
2023/06/13 06:03:46;;;;;;;9.68;5.15;;;13.20;82.90;;;;;;5082274;28;20035;-69
2023/06/13 06:06:12;;;;;;;11.70;5.47;;;12.70;83.30;;;;;;5080536;28;20421;-68
2023/06/13 06:08:38;;;;;;;10.15;5.03;;;12.40;84.40;;;;;;5092697;28;20090;-68
2023/06/13 06:11:03;;;;;;;7.50;4.40;;;12.30;84.90;;;;;;5075621;28;20318;-68
2023/06/13 06:13:29;;;;;;;9.95;4.60;;;12.20;85.40;;;;;;5086538;28;20295;-69
2023/06/13 06:15:58;;;;;;;10.13;4.88;;;12.30;84.60;;;;;;5096121;28;20222;-69
2023/06/13 06:18:23;;;;;;;8.57;4.45;;;12.50;84.10;;;;;;5087994;28;20086;-68
2023/06/13 06:20:49;;;;;;;15.85;5.47;;;12.80;83.30;;;;;;5089242;28;20024;-69
2023/06/13 06:23:15;;;;;;;9.68;5.43;;;13.00;81.60;;;;;;5081478;28;20059;-68
2023/06/13 06:25:40;;;;;;;9.43;5.35;;;13.20;81.30;;;;;;5078630;28;20471;-68
2023/06/13 06:28:06;;;;;;;8.80;4.30;;;13.40;80.60;;;;;;5085939;28;20040;-69
2023/06/13 06:30:31;;;;;;;6.90;3.85;;;13.80;79.30;;;;;;5096003;28;20060;-68
2023/06/13 06:32:57;;;;;;;8.68;4.03;;;14.20;77.00;;;;;;5095181;28;20028;-68
2023/06/13 06:35:23;;;;;;;6.57;3.67;;;14.40;76.70;;;;;;5095171;28;20063;-68
2023/06/13 06:37:49;;;;;;;7.82;4.13;;;14.70;75.80;;;;;;5079327;28;20322;-69
2023/06/13 06:40:17;;;;;;;8.55;3.90;;;14.90;75.90;;;;;;5085502;28;20059;-69
2023/06/13 06:42:43;;;;;;;8.65;4.18;;;15.20;74.40;;;;;;5082716;28;20020;-69
2023/06/13 06:45:15;;;;;;;8.00;3.80;;;15.30;73.10;;;;;;5093517;28;20489;-68
2023/06/13 06:47:41;;;;;;;10.35;4.00;;;15.40;71.90;;;;;;5084807;28;20024;-68
2023/06/13 06:50:07;;;;;;;7.90;3.85;;;15.60;71.80;;;;;;5081847;28;20042;-69
2023/06/13 06:52:32;;;;;;;7.25;4.00;;;15.70;70.90;;;;;;5078571;28;20195;-69
2023/06/13 06:54:58;;;;;;;9.35;3.70;;;15.80;70.70;;;;;;5075528;28;20035;-69
2023/06/13 06:57:23;;;;;;;7.55;3.88;;;15.90;71.80;;;;;;5084625;28;20033;-68
2023/06/13 06:59:49;;;;;;;8.77;3.72;;;16.00;70.90;;;;;;5087244;28;20030;-68
2023/06/13 07:02:16;;;;;;;9.30;4.32;;;16.10;68.90;;;;;;5086966;28;20321;-68
2023/06/13 07:04:41;;;;;;;5.93;3.65;;;16.30;68.00;;;;;;5085136;28;20024;-68
2023/06/13 07:07:07;;;;;;;7.68;3.92;;;16.30;67.80;;;;;;5096603;28;20028;-68
2023/06/13 07:09:32;;;;;;;7.63;3.47;;;16.40;67.70;;;;;;5095774;28;20027;-68
2023/06/13 07:11:58;;;;;;;11.07;3.55;;;16.60;67.40;;;;;;5094095;28;20025;-68
2023/06/13 07:14:25;;;;;;;8.07;3.63;;;16.70;66.60;;;;;;5093619;28;20032;-68
2023/06/13 07:16:51;;;;;;;9.35;3.03;;;16.80;66.60;;;;;;5081370;28;20020;-68
2023/06/13 07:19:16;;;;;;;8.57;3.90;;;16.80;67.00;;;;;;5096008;28;20024;-68
2023/06/13 07:21:42;;;;;;;9.48;3.38;;;17.10;67.30;;;;;;5088922;28;20063;-69
2023/06/13 07:24:07;;;;;;;8.35;2.90;;;17.70;65.80;;;;;;5077722;28;20082;-68
2023/06/13 07:26:33;;;;;;;8.23;3.33;;;18.50;63.50;;;;;;5078962;28;20020;-69
2023/06/13 07:28:59;;;;;;;12.25;3.30;;;19.30;61.50;;;;;;5078837;28;20029;-69
2023/06/13 07:31:25;;;;;;;8.45;3.05;;;19.70;58.60;;;;;;5078884;28;20109;-69
2023/06/13 07:33:50;;;;;;;11.93;3.58;;;20.30;59.30;;;;;;5078724;28;20033;-69
2023/06/13 07:36:16;;;;;;;8.95;3.05;;;20.80;56.70;;;;;;5078452;28;20067;-69
2023/06/13 07:38:42;;;;;;;8.10;3.28;;;20.90;56.30;;;;;;5077642;28;20052;-69
2023/06/13 07:41:09;;;;;;;13.13;3.88;;;20.80;56.80;;;;;;5078577;28;20046;-69
2023/06/13 07:43:35;;;;;;;8.77;3.47;;;20.80;56.10;;;;;;5078697;28;20357;-68
2023/06/13 07:46:00;;;;;;;8.57;3.85;;;21.10;56.80;;;;;;5078634;28;20032;-69
2023/06/13 07:48:30;;;;;;;9.80;3.72;;;21.10;54.90;;;;;;5060718;28;20032;-69
2023/06/13 07:50:55;;;;;;;8.02;3.50;;;21.10;54.50;;;;;;5081372;28;20020;-69
2023/06/13 07:53:21;;;;;;;6.28;2.90;;;21.20;54.20;;;;;;5097545;28;20035;-69
2023/06/13 07:55:47;;;;;;;10.93;3.35;;;21.40;53.90;;;;;;5098660;28;20020;-69
2023/06/13 07:58:14;;;;;;;8.00;2.92;;;21.50;53.60;;;;;;5098721;28;20321;-69
2023/06/13 08:00:40;;;;;;;6.80;3.10;;;21.90;53.90;;;;;;5098450;28;20362;-67
2023/06/13 08:03:05;;;;;;;8.48;3.08;;;22.50;54.30;;;;;;5098540;28;20051;-67
2023/06/13 08:05:31;;;;;;;8.60;3.30;;;23.10;52.20;;;;;;5096091;28;20047;-67
2023/06/13 08:07:57;;;;;;;9.98;3.22;;;23.00;50.30;;;;;;5077082;28;20107;-68
2023/06/13 08:10:23;;;;;;;7.28;3.10;;;22.90;52.80;;;;;;5078184;28;20036;-68
2023/06/13 08:12:49;;;;;;;10.35;3.25;;;23.20;51.70;;;;;;5078036;28;20035;-66
2023/06/13 08:15:15;;;;;;;7.07;2.85;;;23.00;50.80;;;;;;5060573;28;20382;-66
2023/06/13 08:17:43;;;;;;;6.18;3.20;;;23.60;51.80;;;;;;5077690;28;20040;-66
2023/06/13 08:20:10;;;;;;;6.47;3.00;;;23.60;50.30;;;;;;5077825;28;20035;-66
2023/06/13 08:22:39;;;;;;;6.72;3.20;;;23.80;50.00;;;;;;5076794;28;20298;-66
2023/06/13 08:25:09;;;;;;;7.97;3.20;;;23.20;48.90;;;;;;5087145;28;20695;-68
2023/06/13 08:27:36;;;;;;;5.32;3.10;;;23.00;51.40;;;;;;5098125;28;20021;-68
2023/06/13 08:30:04;;;;;;;5.13;2.85;;;23.70;51.60;;;;;;5096008;28;20036;-68
2023/06/13 08:32:31;;;;;;;7.70;2.90;;;24.00;49.30;;;;;;5097752;28;20016;-67
2023/06/13 08:34:57;;;;;;;7.78;3.58;;;24.20;50.80;;;;;;5097957;28;20024;-68
2023/06/13 08:37:23;;;;;;;8.70;3.15;;;25.10;48.90;;;;;;5096473;28;20048;-68
2023/06/13 08:39:48;;;;;;;6.85;3.00;;;25.50;47.60;;;;;;5091881;28;20039;-68
2023/06/13 08:42:14;;;;;;;6.82;2.83;;;25.90;48.40;;;;;;5077559;28;20111;-68
2023/06/13 08:44:41;;;;;;;7.32;3.17;;;26.30;47.70;;;;;;5089812;28;20032;-68
2023/06/13 08:47:07;;;;;;;8.15;3.20;;;25.60;47.50;;;;;;5097600;28;20093;-67
2023/06/13 08:49:33;;;;;;;6.00;2.90;;;25.80;48.50;;;;;;5097481;28;20059;-68
2023/06/13 08:52:00;;;;;;;6.03;2.85;;;25.80;48.40;;;;;;5096870;28;20063;-67
2023/06/13 08:54:29;;;;;;;5.88;2.90;;;25.60;47.50;;;;;;5093928;28;20046;-68
2023/06/13 08:56:56;;;;;;;9.10;3.05;;;25.80;47.30;;;;;;5077113;28;20030;-68
2023/06/13 08:59:30;;;;;;;9.23;3.00;;;26.00;47.20;;;;;;5087101;28;20413;-68
2023/06/13 09:01:57;;;;;;;7.90;3.22;;;26.40;46.50;;;;;;5077150;28;20086;-68
2023/06/13 09:04:27;;;;;;;5.72;3.00;;;25.50;47.10;;;;;;5076979;28;20356;-68
2023/06/13 09:06:56;;;;;;;6.88;3.35;;;25.50;47.70;;;;;;5077171;28;20016;-68
2023/06/13 09:09:21;;;;;;;6.97;3.10;;;25.80;46.80;;;;;;5076523;28;20078;-67
2023/06/13 09:11:50;;;;;;;5.15;2.88;;;25.80;48.30;;;;;;5084349;28;20425;-68
2023/06/13 09:14:17;;;;;;;7.78;2.70;;;26.60;47.20;;;;;;5084425;28;20377;-68
2023/06/13 09:16:44;;;;;;;6.63;2.92;;;26.70;46.40;;;;;;5087884;28;20046;-68
2023/06/13 09:19:09;;;;;;;7.43;3.25;;;26.80;46.90;;;;;;5089230;28;20060;-68
2023/06/13 09:21:37;;;;;;;6.45;3.50;;;26.80;46.20;;;;;;5076641;28;20456;-68
2023/06/13 09:24:03;;;;;;;5.47;3.42;;;26.30;45.70;;;;;;5081833;28;20023;-68
2023/06/13 09:26:29;;;;;;;7.82;3.20;;;25.40;46.10;;;;;;5092386;28;20055;-68
2023/06/13 09:28:56;;;;;;;5.70;2.88;;;25.90;46.90;;;;;;5089763;28;20084;-68
2023/06/13 09:31:22;;;;;;;4.55;2.80;;;26.80;46.00;;;;;;5095910;28;20433;-68
2023/06/13 09:33:48;;;;;;;6.35;2.97;;;27.60;44.30;;;;;;5095862;28;20071;-68
2023/06/13 09:36:13;;;;;;;7.28;3.20;;;28.00;43.40;;;;;;5096536;28;20407;-67
2023/06/13 09:38:41;;;;;;;7.10;3.65;;;27.20;43.20;;;;;;5081536;28;20318;-68
2023/06/13 09:41:13;;;;;;;6.72;3.45;;;25.20;45.60;;;;;;5076450;28;20024;-67
2023/06/13 09:43:39;;;;;;;7.40;3.20;;;24.50;45.90;;;;;;5078490;28;20052;-67
2023/06/13 09:46:06;;;;;;;8.13;3.25;;;24.60;45.80;;;;;;5086138;28;20111;-68
2023/06/13 09:48:32;;;;;;;8.73;3.45;;;25.40;46.10;;;;;;5095968;28;20101;-67
2023/06/13 09:50:58;;;;;;;6.57;3.20;;;26.00;47.30;;;;;;5096478;28;20405;-68
2023/06/13 09:53:25;;;;;;;7.53;3.28;;;26.50;44.50;;;;;;5079748;28;20055;-68
2023/06/13 09:55:51;;;;;;;7.60;3.60;;;26.50;44.20;;;;;;5076168;28;20075;-67
2023/06/13 09:58:17;;;;;;;10.07;3.28;;;26.80;43.40;;;;;;5078396;28;20061;-68
2023/06/13 10:00:43;;;;;;;5.53;3.08;;;26.40;42.50;;;;;;5084664;28;20340;-68
2023/06/13 10:03:08;;;;;;;7.03;3.15;;;26.00;41.90;;;;;;5095017;28;20107;-67
2023/06/13 10:05:34;;;;;;;7.20;3.15;;;25.70;43.60;;;;;;5096190;28;20027;-67
2023/06/13 10:07:59;;;;;;;6.18;3.50;;;25.30;43.70;;;;;;5095146;28;20364;-67
2023/06/13 10:10:25;;;;;;;11.60;2.88;;;25.20;46.20;;;;;;5096169;28;20063;-67
2023/06/13 10:13:02;;;;;;;9.57;3.13;;;25.80;44.40;;;;;;5095365;28;20020;-67
2023/06/13 10:15:32;;;;;;;7.25;3.30;;;26.60;44.30;;;;;;5095481;28;20027;-67
2023/06/13 10:18:02;;;;;;;5.70;3.17;;;27.20;42.80;;;;;;5094820;28;20040;-67
2023/06/13 10:20:30;;;;;;;5.25;3.15;;;27.50;42.70;;;;;;5095919;28;20020;-67
2023/06/13 10:22:57;;;;;;;6.97;3.00;;;27.70;42.00;;;;;;5094652;28;20016;-67
2023/06/13 10:25:27;;;;;;;5.32;3.00;;;27.70;40.80;;;;;;5094224;28;20105;-67
2023/06/13 10:27:58;;;;;;;6.53;3.08;;;28.10;41.30;;;;;;5082243;28;20023;-67
2023/06/13 10:30:48;;;;;;;8.40;3.10;;;28.10;40.90;;;;;;5092926;28;20075;-67
2023/06/13 10:33:53;;;;;;;5.88;2.90;;;28.10;42.20;;;;;;5090738;28;20115;-67
2023/06/13 10:36:34;;;;;;;6.20;3.20;;;28.50;40.20;;;;;;5094524;28;20044;-67
2023/06/13 10:39:36;;;;;;;6.78;2.97;;;28.70;41.10;;;;;;5094577;28;20060;-67
2023/06/13 10:42:36;;;;;;;7.85;2.70;;;28.70;42.00;;;;;;5099719;28;20024;-67
2023/06/13 10:45:16;;;;;;;7.28;3.00;;;28.80;40.80;;;;;;5099847;28;20016;-67
2023/06/13 10:47:42;;;;;;;9.93;2.72;;;28.30;41.00;;;;;;5087633;28;20021;-67
2023/06/13 10:50:08;;;;;;;5.50;2.88;;;28.30;42.70;;;;;;5097371;28;20028;-67
2023/06/13 10:52:42;;;;;;;6.80;3.08;;;28.50;41.50;;;;;;5097152;28;20028;-68
2023/06/13 10:55:20;;;;;;;8.35;3.53;;;27.00;40.20;;;;;;5099875;28;20024;-68
2023/06/13 10:57:51;;;;;;;7.30;3.28;;;26.10;43.90;;;;;;5095916;28;20035;-67
2023/06/13 11:00:24;;;;;;;13.90;3.72;;;26.60;42.20;;;;;;5097104;28;20023;-68
2023/06/13 11:02:56;;;;;;;6.95;3.30;;;27.30;43.10;;;;;;5099733;28;20319;-67
2023/06/13 11:05:21;;;;;;;8.95;3.42;;;27.10;41.20;;;;;;5099683;28;20020;-67
2023/06/13 11:07:47;;;;;;;7.72;3.25;;;27.40;42.40;;;;;;5095843;28;20110;-66
2023/06/13 11:10:19;;;;;;;8.32;3.45;;;27.60;42.40;;;;;;5079484;28;20027;-66
2023/06/13 11:12:45;;;;;;;6.28;3.30;;;27.80;40.80;;;;;;5087970;28;20421;-66
2023/06/13 11:15:24;;;;;;;7.18;3.25;;;28.00;40.50;;;;;;5099273;28;20111;-66
2023/06/13 11:18:10;;;;;;;6.93;3.10;;;27.80;39.80;;;;;;5098692;28;20103;-66
2023/06/13 11:20:59;;;;;;;6.47;3.08;;;27.50;41.70;;;;;;5046612;28;20052;-68
2023/06/13 11:23:33;;;;;;;6.32;3.47;;;27.20;41.70;;;;;;5098008;28;20027;-67
2023/06/13 11:25:59;;;;;;;6.75;3.10;;;26.60;42.30;;;;;;5099164;28;20032;-68
2023/06/13 11:28:24;;;;;;;7.38;3.50;;;26.30;43.00;;;;;;5089803;28;20028;-68
2023/06/13 11:30:52;;;;;;;5.43;3.10;;;26.70;43.60;;;;;;5090294;28;20020;-68
2023/06/13 11:33:18;;;;;;;5.65;3.30;;;26.40;42.70;;;;;;5078887;28;20059;-68
2023/06/13 11:35:57;;;;;;;11.23;3.78;;;26.50;42.90;;;;;;5078635;28;20028;-67
2023/06/13 11:38:58;;;;;;;5.85;3.45;;;27.20;40.70;;;;;;5077443;28;20035;-67
2023/06/13 11:41:23;;;;;;;5.82;3.40;;;27.40;41.10;;;;;;5053456;28;20071;-68
2023/06/13 11:43:49;;;;;;;7.85;3.85;;;27.50;40.20;;;;;;5082278;28;20421;-68
2023/06/13 11:46:15;;;;;;;5.65;3.28;;;27.60;41.20;;;;;;5095082;28;20028;-68
2023/06/13 11:48:43;;;;;;;5.03;3.17;;;27.80;40.10;;;;;;5089448;28;20384;-68
2023/06/13 11:51:13;;;;;;;6.55;3.60;;;27.50;39.00;;;;;;5086749;28;20394;-68
2023/06/13 11:53:53;;;;;;;6.80;3.65;;;27.30;39.10;;;;;;5096730;28;20024;-68
2023/06/13 11:56:20;;;;;;;5.93;3.38;;;27.50;40.30;;;;;;5098645;28;20385;-67
2023/06/13 11:58:47;;;;;;;6.43;3.53;;;27.80;40.70;;;;;;5098621;28;20040;-68
2023/06/13 12:01:13;;;;;;;8.68;3.50;;;28.00;40.40;;;;;;5093890;28;20024;-68
2023/06/13 12:03:40;;;;;;;13.27;3.40;;;28.30;39.90;;;;;;5095007;28;20020;-68
2023/06/13 12:06:07;;;;;;;6.18;3.22;;;28.50;39.20;;;;;;5089381;28;20116;-68
2023/06/13 12:08:38;;;;;;;6.13;3.40;;;28.70;38.00;;;;;;5097169;28;20028;-68
2023/06/13 12:11:07;;;;;;;7.95;4.07;;;28.70;38.60;;;;;;5098524;28;20086;-68
2023/06/13 12:13:33;;;;;;;8.63;3.33;;;28.60;39.60;;;;;;5097403;28;20043;-68
2023/06/13 12:16:00;;;;;;;6.22;3.15;;;28.90;40.40;;;;;;5078799;28;20079;-68
2023/06/13 12:18:28;;;;;;;8.38;4.03;;;29.00;39.60;;;;;;5078127;28;20503;-68
2023/06/13 12:20:56;;;;;;;7.53;3.47;;;28.90;40.70;;;;;;5077837;28;20104;-68
2023/06/13 12:23:26;;;;;;;6.18;2.85;;;29.00;40.60;;;;;;5077036;28;20028;-68
2023/06/13 12:25:52;;;;;;;6.90;3.35;;;29.10;39.40;;;;;;5080305;28;20073;-68
2023/06/13 12:28:18;;;;;;;5.88;3.03;;;29.50;39.00;;;;;;5077731;28;20017;-68
2023/06/13 12:30:46;;;;;;;7.97;3.30;;;30.00;39.20;;;;;;5077749;28;20440;-68
2023/06/13 12:33:16;;;;;;;8.13;3.50;;;30.20;38.40;;;;;;5077524;28;20043;-68
2023/06/13 12:36:09;;;;;;;12.48;3.70;;;29.90;38.70;;;;;;5096549;28;20092;-68
2023/06/13 12:38:36;;;;;;;6.18;3.40;;;29.80;38.00;;;;;;5094032;28;20040;-67
2023/06/13 12:41:12;;;;;;;10.27;3.50;;;29.50;37.10;;;;;;5097807;28;20472;-68
2023/06/13 12:43:41;;;;;;;6.75;3.40;;;29.60;38.40;;;;;;5082636;28;20167;-68
2023/06/13 12:46:06;;;;;;;7.20;3.17;;;29.90;36.80;;;;;;5097804;28;20084;-68
2023/06/13 12:48:37;;;;;;;7.05;3.63;;;30.50;36.70;;;;;;5097013;28;20418;-68
2023/06/13 12:51:03;;;;;;;8.85;3.35;;;30.70;36.50;;;;;;5097596;28;20032;-68